sensor_id;sensor_type;location;lat;lon;timestamp;P1;durP1;ratioP1;P2;durP2;ratioP2
72325;SDS011;60278;47.980;18.780;2022-08-21T00:02:33;9.00;;;5.55;;
72325;SDS011;60278;47.980;18.780;2022-08-21T00:06:04;7.78;;;5.43;;
72325;SDS011;60278;47.980;18.780;2022-08-21T00:09:35;8.23;;;5.07;;
72325;SDS011;60278;47.980;18.780;2022-08-21T00:13:07;9.02;;;5.63;;
72325;SDS011;60278;47.980;18.780;2022-08-21T00:16:38;9.68;;;6.22;;
72325;SDS011;60278;47.980;18.780;2022-08-21T00:20:10;10.63;;;5.93;;
72325;SDS011;60278;47.980;18.780;2022-08-21T00:23:43;8.37;;;5.47;;
72325;SDS011;60278;47.980;18.780;2022-08-21T00:27:14;7.90;;;5.50;;
72325;SDS011;60278;47.980;18.780;2022-08-21T00:30:45;10.95;;;6.38;;
72325;SDS011;60278;47.980;18.780;2022-08-21T00:34:16;9.83;;;6.23;;
72325;SDS011;60278;47.980;18.780;2022-08-21T00:37:48;10.00;;;6.32;;
72325;SDS011;60278;47.980;18.780;2022-08-21T00:41:19;10.32;;;6.13;;
72325;SDS011;60278;47.980;18.780;2022-08-21T00:44:50;11.23;;;7.00;;
72325;SDS011;60278;47.980;18.780;2022-08-21T00:48:22;10.10;;;6.83;;
72325;SDS011;60278;47.980;18.780;2022-08-21T00:51:56;11.48;;;7.22;;
72325;SDS011;60278;47.980;18.780;2022-08-21T00:55:31;11.02;;;7.07;;
72325;SDS011;60278;47.980;18.780;2022-08-21T00:59:03;12.83;;;6.80;;
72325;SDS011;60278;47.980;18.780;2022-08-21T01:02:35;12.15;;;7.03;;
72325;SDS011;60278;47.980;18.780;2022-08-21T01:06:07;14.02;;;6.97;;
72325;SDS011;60278;47.980;18.780;2022-08-21T01:09:39;10.40;;;7.13;;
72325;SDS011;60278;47.980;18.780;2022-08-21T01:13:11;11.13;;;7.33;;
72325;SDS011;60278;47.980;18.780;2022-08-21T01:16:48;12.65;;;7.88;;
72325;SDS011;60278;47.980;18.780;2022-08-21T01:20:22;11.35;;;7.78;;
72325;SDS011;60278;47.980;18.780;2022-08-21T01:23:54;11.50;;;7.90;;
72325;SDS011;60278;47.980;18.780;2022-08-21T01:27:26;13.32;;;7.72;;
72325;SDS011;60278;47.980;18.780;2022-08-21T01:30:57;13.77;;;8.20;;
72325;SDS011;60278;47.980;18.780;2022-08-21T01:34:30;14.20;;;8.00;;
72325;SDS011;60278;47.980;18.780;2022-08-21T01:38:02;10.80;;;7.65;;
72325;SDS011;60278;47.980;18.780;2022-08-21T01:41:33;13.48;;;7.85;;
72325;SDS011;60278;47.980;18.780;2022-08-21T01:45:05;14.27;;;7.50;;
72325;SDS011;60278;47.980;18.780;2022-08-21T01:48:37;14.03;;;8.37;;
72325;SDS011;60278;47.980;18.780;2022-08-21T01:52:09;14.02;;;8.95;;
72325;SDS011;60278;47.980;18.780;2022-08-21T01:55:40;16.02;;;10.07;;
72325;SDS011;60278;47.980;18.780;2022-08-21T01:59:12;16.97;;;9.87;;
72325;SDS011;60278;47.980;18.780;2022-08-21T02:02:44;15.27;;;10.03;;
72325;SDS011;60278;47.980;18.780;2022-08-21T02:06:15;18.98;;;10.20;;
72325;SDS011;60278;47.980;18.780;2022-08-21T02:09:48;21.90;;;10.60;;
72325;SDS011;60278;47.980;18.780;2022-08-21T02:13:19;17.83;;;10.33;;
72325;SDS011;60278;47.980;18.780;2022-08-21T02:16:51;18.33;;;10.25;;
72325;SDS011;60278;47.980;18.780;2022-08-21T02:20:41;20.33;;;11.65;;
72325;SDS011;60278;47.980;18.780;2022-08-21T02:24:18;16.50;;;9.47;;
72325;SDS011;60278;47.980;18.780;2022-08-21T02:27:49;19.88;;;10.05;;
72325;SDS011;60278;47.980;18.780;2022-08-21T02:31:21;16.45;;;9.50;;
72325;SDS011;60278;47.980;18.780;2022-08-21T02:34:52;15.05;;;9.57;;
72325;SDS011;60278;47.980;18.780;2022-08-21T02:38:24;16.50;;;10.13;;
72325;SDS011;60278;47.980;18.780;2022-08-21T02:41:57;18.50;;;10.63;;
72325;SDS011;60278;47.980;18.780;2022-08-21T02:45:28;18.92;;;10.35;;
72325;SDS011;60278;47.980;18.780;2022-08-21T02:48:59;19.13;;;10.77;;
72325;SDS011;60278;47.980;18.780;2022-08-21T02:52:30;17.55;;;10.60;;
72325;SDS011;60278;47.980;18.780;2022-08-21T02:56:03;19.15;;;10.98;;
72325;SDS011;60278;47.980;18.780;2022-08-21T02:59:36;17.80;;;10.60;;
72325;SDS011;60278;47.980;18.780;2022-08-21T03:03:07;17.52;;;10.25;;
72325;SDS011;60278;47.980;18.780;2022-08-21T03:06:38;18.52;;;11.07;;
72325;SDS011;60278;47.980;18.780;2022-08-21T03:10:09;17.83;;;10.80;;
72325;SDS011;60278;47.980;18.780;2022-08-21T03:13:41;16.50;;;10.90;;
72325;SDS011;60278;47.980;18.780;2022-08-21T03:17:12;18.15;;;10.70;;
72325;SDS011;60278;47.980;18.780;2022-08-21T03:20:43;17.83;;;10.65;;
72325;SDS011;60278;47.980;18.780;2022-08-21T03:24:18;16.90;;;11.10;;
72325;SDS011;60278;47.980;18.780;2022-08-21T03:27:49;20.42;;;11.02;;
72325;SDS011;60278;47.980;18.780;2022-08-21T03:31:20;15.95;;;10.32;;
72325;SDS011;60278;47.980;18.780;2022-08-21T03:34:52;19.15;;;10.32;;
72325;SDS011;60278;47.980;18.780;2022-08-21T03:38:23;16.73;;;10.40;;
72325;SDS011;60278;47.980;18.780;2022-08-21T03:41:54;17.60;;;10.15;;
72325;SDS011;60278;47.980;18.780;2022-08-21T03:45:25;17.23;;;10.80;;
72325;SDS011;60278;47.980;18.780;2022-08-21T03:48:57;18.57;;;11.60;;
72325;SDS011;60278;47.980;18.780;2022-08-21T03:52:28;16.33;;;9.90;;
72325;SDS011;60278;47.980;18.780;2022-08-21T03:55:59;17.42;;;10.23;;
72325;SDS011;60278;47.980;18.780;2022-08-21T03:59:30;17.80;;;10.68;;
72325;SDS011;60278;47.980;18.780;2022-08-21T04:03:01;17.17;;;9.70;;
72325;SDS011;60278;47.980;18.780;2022-08-21T04:06:32;16.42;;;10.25;;
72325;SDS011;60278;47.980;18.780;2022-08-21T04:10:04;24.98;;;11.27;;
72325;SDS011;60278;47.980;18.780;2022-08-21T04:13:37;16.20;;;8.70;;
72325;SDS011;60278;47.980;18.780;2022-08-21T04:17:09;15.52;;;8.93;;
72325;SDS011;60278;47.980;18.780;2022-08-21T04:20:40;13.65;;;8.30;;
72325;SDS011;60278;47.980;18.780;2022-08-21T04:24:13;12.75;;;7.25;;
72325;SDS011;60278;47.980;18.780;2022-08-21T04:27:44;12.73;;;7.13;;
72325;SDS011;60278;47.980;18.780;2022-08-21T04:31:16;11.70;;;6.72;;
72325;SDS011;60278;47.980;18.780;2022-08-21T04:34:47;10.63;;;6.85;;
72325;SDS011;60278;47.980;18.780;2022-08-21T04:38:18;9.43;;;5.93;;
72325;SDS011;60278;47.980;18.780;2022-08-21T04:41:49;10.20;;;5.60;;
72325;SDS011;60278;47.980;18.780;2022-08-21T04:45:22;10.30;;;5.78;;
72325;SDS011;60278;47.980;18.780;2022-08-21T04:48:56;13.43;;;5.60;;
72325;SDS011;60278;47.980;18.780;2022-08-21T04:52:27;11.18;;;6.32;;
72325;SDS011;60278;47.980;18.780;2022-08-21T04:56:01;9.13;;;5.57;;
72325;SDS011;60278;47.980;18.780;2022-08-21T04:59:42;13.10;;;5.82;;
72325;SDS011;60278;47.980;18.780;2022-08-21T05:03:16;12.63;;;6.40;;
72325;SDS011;60278;47.980;18.780;2022-08-21T05:06:49;12.07;;;6.03;;
72325;SDS011;60278;47.980;18.780;2022-08-21T05:10:23;8.88;;;5.60;;
72325;SDS011;60278;47.980;18.780;2022-08-21T05:13:54;11.67;;;6.80;;
72325;SDS011;60278;47.980;18.780;2022-08-21T05:17:25;9.60;;;5.70;;
72325;SDS011;60278;47.980;18.780;2022-08-21T05:20:56;10.80;;;6.75;;
72325;SDS011;60278;47.980;18.780;2022-08-21T05:24:28;9.15;;;5.60;;
72325;SDS011;60278;47.980;18.780;2022-08-21T05:27:59;11.40;;;6.37;;
72325;SDS011;60278;47.980;18.780;2022-08-21T05:31:30;14.10;;;6.75;;
72325;SDS011;60278;47.980;18.780;2022-08-21T05:35:02;9.68;;;6.13;;
72325;SDS011;60278;47.980;18.780;2022-08-21T05:38:34;10.87;;;6.53;;
72325;SDS011;60278;47.980;18.780;2022-08-21T05:42:06;14.52;;;6.07;;
72325;SDS011;60278;47.980;18.780;2022-08-21T05:45:37;11.15;;;6.38;;
72325;SDS011;60278;47.980;18.780;2022-08-21T05:49:08;12.20;;;6.75;;
72325;SDS011;60278;47.980;18.780;2022-08-21T05:52:39;13.60;;;6.47;;
72325;SDS011;60278;47.980;18.780;2022-08-21T05:56:10;10.52;;;6.53;;
72325;SDS011;60278;47.980;18.780;2022-08-21T05:59:43;11.13;;;7.35;;
72325;SDS011;60278;47.980;18.780;2022-08-21T06:03:18;12.43;;;7.50;;
72325;SDS011;60278;47.980;18.780;2022-08-21T06:06:54;14.50;;;7.60;;
72325;SDS011;60278;47.980;18.780;2022-08-21T06:10:25;11.48;;;6.85;;
72325;SDS011;60278;47.980;18.780;2022-08-21T06:13:56;13.70;;;7.40;;
72325;SDS011;60278;47.980;18.780;2022-08-21T06:17:28;10.65;;;6.93;;
72325;SDS011;60278;47.980;18.780;2022-08-21T06:20:59;13.50;;;7.68;;
72325;SDS011;60278;47.980;18.780;2022-08-21T06:24:30;12.75;;;7.47;;
72325;SDS011;60278;47.980;18.780;2022-08-21T06:28:06;12.33;;;6.90;;
72325;SDS011;60278;47.980;18.780;2022-08-21T06:31:38;11.15;;;7.00;;
72325;SDS011;60278;47.980;18.780;2022-08-21T06:35:10;10.07;;;6.53;;
72325;SDS011;60278;47.980;18.780;2022-08-21T06:38:42;13.27;;;7.07;;
72325;SDS011;60278;47.980;18.780;2022-08-21T06:42:16;12.25;;;7.63;;
72325;SDS011;60278;47.980;18.780;2022-08-21T06:45:48;12.68;;;7.50;;
72325;SDS011;60278;47.980;18.780;2022-08-21T06:49:19;10.25;;;6.90;;
72325;SDS011;60278;47.980;18.780;2022-08-21T06:52:57;12.33;;;7.10;;
72325;SDS011;60278;47.980;18.780;2022-08-21T06:56:33;12.43;;;7.38;;
72325;SDS011;60278;47.980;18.780;2022-08-21T07:00:06;9.77;;;6.63;;
72325;SDS011;60278;47.980;18.780;2022-08-21T07:03:40;11.30;;;6.63;;
72325;SDS011;60278;47.980;18.780;2022-08-21T07:07:13;14.02;;;6.82;;
72325;SDS011;60278;47.980;18.780;2022-08-21T07:10:44;13.43;;;6.72;;
72325;SDS011;60278;47.980;18.780;2022-08-21T07:14:15;10.32;;;6.40;;
72325;SDS011;60278;47.980;18.780;2022-08-21T07:17:46;11.33;;;6.83;;
72325;SDS011;60278;47.980;18.780;2022-08-21T07:21:17;12.23;;;7.25;;
72325;SDS011;60278;47.980;18.780;2022-08-21T07:24:49;10.75;;;6.35;;
72325;SDS011;60278;47.980;18.780;2022-08-21T07:28:20;8.60;;;5.37;;
72325;SDS011;60278;47.980;18.780;2022-08-21T07:31:51;10.20;;;5.93;;
72325;SDS011;60278;47.980;18.780;2022-08-21T07:35:22;9.25;;;5.32;;
72325;SDS011;60278;47.980;18.780;2022-08-21T07:38:53;7.78;;;5.15;;
72325;SDS011;60278;47.980;18.780;2022-08-21T07:42:24;9.20;;;6.00;;
72325;SDS011;60278;47.980;18.780;2022-08-21T07:45:55;8.15;;;5.57;;
72325;SDS011;60278;47.980;18.780;2022-08-21T07:49:27;9.18;;;5.22;;
72325;SDS011;60278;47.980;18.780;2022-08-21T07:52:58;8.23;;;5.20;;
72325;SDS011;60278;47.980;18.780;2022-08-21T07:56:30;9.03;;;5.43;;
72325;SDS011;60278;47.980;18.780;2022-08-21T08:00:06;7.80;;;4.82;;
72325;SDS011;60278;47.980;18.780;2022-08-21T08:03:42;8.63;;;5.30;;
72325;SDS011;60278;47.980;18.780;2022-08-21T08:07:13;8.00;;;5.83;;
72325;SDS011;60278;47.980;18.780;2022-08-21T08:10:44;7.90;;;4.73;;
72325;SDS011;60278;47.980;18.780;2022-08-21T08:14:16;10.75;;;6.13;;
72325;SDS011;60278;47.980;18.780;2022-08-21T08:17:47;10.20;;;5.40;;
72325;SDS011;60278;47.980;18.780;2022-08-21T08:21:18;9.27;;;5.30;;
72325;SDS011;60278;47.980;18.780;2022-08-21T08:24:51;9.63;;;5.22;;
72325;SDS011;60278;47.980;18.780;2022-08-21T08:28:23;9.63;;;5.28;;
72325;SDS011;60278;47.980;18.780;2022-08-21T08:31:55;7.00;;;4.57;;
72325;SDS011;60278;47.980;18.780;2022-08-21T08:35:26;8.87;;;4.47;;
72325;SDS011;60278;47.980;18.780;2022-08-21T08:38:59;7.88;;;4.72;;
72325;SDS011;60278;47.980;18.780;2022-08-21T08:42:32;10.10;;;4.65;;
72325;SDS011;60278;47.980;18.780;2022-08-21T08:46:06;7.37;;;4.60;;
72325;SDS011;60278;47.980;18.780;2022-08-21T08:49:47;8.77;;;4.73;;
72325;SDS011;60278;47.980;18.780;2022-08-21T08:53:32;7.38;;;4.82;;
72325;SDS011;60278;47.980;18.780;2022-08-21T08:57:17;6.80;;;4.30;;
72325;SDS011;60278;47.980;18.780;2022-08-21T09:00:51;7.07;;;4.17;;
72325;SDS011;60278;47.980;18.780;2022-08-21T09:04:25;9.15;;;4.78;;
72325;SDS011;60278;47.980;18.780;2022-08-21T09:11:59;8.93;;;4.32;;
72325;SDS011;60278;47.980;18.780;2022-08-21T09:15:41;7.60;;;4.27;;
72325;SDS011;60278;47.980;18.780;2022-08-21T09:23:34;7.75;;;4.65;;
72325;SDS011;60278;47.980;18.780;2022-08-21T09:27:12;8.57;;;3.83;;
72325;SDS011;60278;47.980;18.780;2022-08-21T09:30:45;5.60;;;3.83;;
72325;SDS011;60278;47.980;18.780;2022-08-21T09:34:24;6.95;;;4.10;;
72325;SDS011;60278;47.980;18.780;2022-08-21T09:38:03;5.93;;;3.75;;
72325;SDS011;60278;47.980;18.780;2022-08-21T09:41:38;7.20;;;3.80;;
72325;SDS011;60278;47.980;18.780;2022-08-21T09:45:15;7.80;;;4.32;;
72325;SDS011;60278;47.980;18.780;2022-08-21T09:48:49;8.85;;;4.13;;
72325;SDS011;60278;47.980;18.780;2022-08-21T09:52:22;6.07;;;3.88;;
72325;SDS011;60278;47.980;18.780;2022-08-21T09:59:49;10.70;;;4.80;;
72325;SDS011;60278;47.980;18.780;2022-08-21T10:03:21;6.40;;;3.38;;
72325;SDS011;60278;47.980;18.780;2022-08-21T10:07:05;8.07;;;4.10;;
72325;SDS011;60278;47.980;18.780;2022-08-21T10:10:40;8.33;;;3.53;;
72325;SDS011;60278;47.980;18.780;2022-08-21T10:25:55;6.80;;;3.38;;
72325;SDS011;60278;47.980;18.780;2022-08-21T10:34:30;7.75;;;3.58;;
72325;SDS011;60278;47.980;18.780;2022-08-21T10:37:52;7.60;;;3.50;;
72325;SDS011;60278;47.980;18.780;2022-08-21T10:45:57;5.20;;;3.30;;
72325;SDS011;60278;47.980;18.780;2022-08-21T10:57:09;6.25;;;3.17;;
72325;SDS011;60278;47.980;18.780;2022-08-21T11:00:51;5.95;;;3.25;;
72325;SDS011;60278;47.980;18.780;2022-08-21T11:04:29;5.03;;;2.80;;
72325;SDS011;60278;47.980;18.780;2022-08-21T11:08:09;7.40;;;3.00;;
72325;SDS011;60278;47.980;18.780;2022-08-21T11:15:31;6.28;;;2.80;;
72325;SDS011;60278;47.980;18.780;2022-08-21T11:19:13;6.77;;;3.17;;
72325;SDS011;60278;47.980;18.780;2022-08-21T11:27:03;6.20;;;3.28;;
72325;SDS011;60278;47.980;18.780;2022-08-21T11:49:53;5.82;;;3.30;;
72325;SDS011;60278;47.980;18.780;2022-08-21T11:53:14;7.47;;;3.45;;
72325;SDS011;60278;47.980;18.780;2022-08-21T11:56:57;5.93;;;3.20;;
72325;SDS011;60278;47.980;18.780;2022-08-21T12:00:36;5.87;;;3.73;;
72325;SDS011;60278;47.980;18.780;2022-08-21T12:04:22;5.80;;;3.33;;
72325;SDS011;60278;47.980;18.780;2022-08-21T12:08:04;9.18;;;3.60;;
72325;SDS011;60278;47.980;18.780;2022-08-21T12:12:09;5.23;;;3.40;;
72325;SDS011;60278;47.980;18.780;2022-08-21T12:16:04;6.25;;;2.60;;
72325;SDS011;60278;47.980;18.780;2022-08-21T12:19:56;8.07;;;2.80;;
72325;SDS011;60278;47.980;18.780;2022-08-21T12:27:47;7.13;;;2.60;;
72325;SDS011;60278;47.980;18.780;2022-08-21T12:31:25;5.10;;;2.70;;
72325;SDS011;60278;47.980;18.780;2022-08-21T12:35:07;4.72;;;2.60;;
72325;SDS011;60278;47.980;18.780;2022-08-21T12:38:51;5.03;;;3.10;;
72325;SDS011;60278;47.980;18.780;2022-08-21T12:42:24;5.17;;;2.70;;
72325;SDS011;60278;47.980;18.780;2022-08-21T12:46:04;4.63;;;2.75;;
72325;SDS011;60278;47.980;18.780;2022-08-21T12:49:37;4.55;;;2.80;;
72325;SDS011;60278;47.980;18.780;2022-08-21T12:53:37;9.00;;;4.33;;
72325;SDS011;60278;47.980;18.780;2022-08-21T12:57:22;4.88;;;2.78;;
72325;SDS011;60278;47.980;18.780;2022-08-21T13:01:01;5.28;;;2.65;;
72325;SDS011;60278;47.980;18.780;2022-08-21T13:04:39;6.88;;;2.65;;
72325;SDS011;60278;47.980;18.780;2022-08-21T13:08:12;4.67;;;2.47;;
72325;SDS011;60278;47.980;18.780;2022-08-21T13:11:45;4.50;;;2.60;;
72325;SDS011;60278;47.980;18.780;2022-08-21T13:15:22;4.20;;;2.50;;
72325;SDS011;60278;47.980;18.780;2022-08-21T13:19:05;5.40;;;2.97;;
72325;SDS011;60278;47.980;18.780;2022-08-21T13:22:42;4.73;;;2.80;;
72325;SDS011;60278;47.980;18.780;2022-08-21T13:26:21;6.75;;;3.03;;
72325;SDS011;60278;47.980;18.780;2022-08-21T13:33:36;5.63;;;2.00;;
72325;SDS011;60278;47.980;18.780;2022-08-21T13:37:09;4.43;;;1.80;;
72325;SDS011;60278;47.980;18.780;2022-08-21T13:40:44;4.22;;;1.60;;
72325;SDS011;60278;47.980;18.780;2022-08-21T13:47:57;5.37;;;1.50;;
72325;SDS011;60278;47.980;18.780;2022-08-21T13:51:31;3.30;;;1.43;;
72325;SDS011;60278;47.980;18.780;2022-08-21T13:55:11;4.57;;;1.88;;
72325;SDS011;60278;47.980;18.780;2022-08-21T13:58:45;4.78;;;1.80;;
72325;SDS011;60278;47.980;18.780;2022-08-21T14:02:23;3.40;;;1.37;;
72325;SDS011;60278;47.980;18.780;2022-08-21T14:05:54;4.50;;;1.70;;
72325;SDS011;60278;47.980;18.780;2022-08-21T14:09:33;2.65;;;1.30;;
72325;SDS011;60278;47.980;18.780;2022-08-21T14:13:06;4.15;;;1.50;;
72325;SDS011;60278;47.980;18.780;2022-08-21T14:16:44;5.73;;;2.03;;
72325;SDS011;60278;47.980;18.780;2022-08-21T14:20:28;5.73;;;2.33;;
72325;SDS011;60278;47.980;18.780;2022-08-21T14:24:10;5.25;;;2.25;;
72325;SDS011;60278;47.980;18.780;2022-08-21T14:31:30;5.27;;;2.30;;
72325;SDS011;60278;47.980;18.780;2022-08-21T14:35:03;8.20;;;2.97;;
72325;SDS011;60278;47.980;18.780;2022-08-21T14:38:35;5.28;;;2.90;;
72325;SDS011;60278;47.980;18.780;2022-08-21T14:42:08;7.80;;;3.03;;
72325;SDS011;60278;47.980;18.780;2022-08-21T14:45:39;6.80;;;3.00;;
72325;SDS011;60278;47.980;18.780;2022-08-21T14:49:11;6.37;;;2.93;;
72325;SDS011;60278;47.980;18.780;2022-08-21T14:52:42;5.28;;;2.70;;
72325;SDS011;60278;47.980;18.780;2022-08-21T14:56:15;6.57;;;2.90;;
72325;SDS011;60278;47.980;18.780;2022-08-21T14:59:47;7.43;;;3.40;;
72325;SDS011;60278;47.980;18.780;2022-08-21T15:03:18;7.78;;;3.35;;
72325;SDS011;60278;47.980;18.780;2022-08-21T15:06:52;8.65;;;3.90;;
72325;SDS011;60278;47.980;18.780;2022-08-21T15:10:23;9.18;;;3.75;;
72325;SDS011;60278;47.980;18.780;2022-08-21T15:13:55;10.80;;;3.80;;
72325;SDS011;60278;47.980;18.780;2022-08-21T15:17:28;13.35;;;4.03;;
72325;SDS011;60278;47.980;18.780;2022-08-21T15:20:59;10.48;;;3.22;;
72325;SDS011;60278;47.980;18.780;2022-08-21T15:24:30;10.13;;;3.10;;
72325;SDS011;60278;47.980;18.780;2022-08-21T15:28:02;9.73;;;3.33;;
72325;SDS011;60278;47.980;18.780;2022-08-21T15:31:34;8.38;;;3.55;;
72325;SDS011;60278;47.980;18.780;2022-08-21T15:35:05;7.53;;;3.30;;
72325;SDS011;60278;47.980;18.780;2022-08-21T15:38:37;10.30;;;3.40;;
72325;SDS011;60278;47.980;18.780;2022-08-21T15:42:09;7.17;;;3.57;;
72325;SDS011;60278;47.980;18.780;2022-08-21T15:45:40;10.93;;;4.07;;
72325;SDS011;60278;47.980;18.780;2022-08-21T15:49:11;9.68;;;3.72;;
72325;SDS011;60278;47.980;18.780;2022-08-21T15:52:42;8.80;;;4.03;;
72325;SDS011;60278;47.980;18.780;2022-08-21T15:59:55;8.15;;;4.20;;
72325;SDS011;60278;47.980;18.780;2022-08-21T16:03:28;8.73;;;3.90;;
72325;SDS011;60278;47.980;18.780;2022-08-21T16:06:59;7.13;;;3.43;;
72325;SDS011;60278;47.980;18.780;2022-08-21T16:10:30;18.83;;;6.57;;
72325;SDS011;60278;47.980;18.780;2022-08-21T16:14:01;11.35;;;4.30;;
72325;SDS011;60278;47.980;18.780;2022-08-21T16:17:33;15.63;;;4.73;;
72325;SDS011;60278;47.980;18.780;2022-08-21T16:21:05;8.87;;;5.10;;
72325;SDS011;60278;47.980;18.780;2022-08-21T16:24:37;12.02;;;4.40;;
72325;SDS011;60278;47.980;18.780;2022-08-21T16:28:08;10.48;;;4.28;;
72325;SDS011;60278;47.980;18.780;2022-08-21T16:31:42;14.07;;;5.30;;
72325;SDS011;60278;47.980;18.780;2022-08-21T16:35:15;10.25;;;4.68;;
72325;SDS011;60278;47.980;18.780;2022-08-21T16:38:48;9.20;;;4.40;;
72325;SDS011;60278;47.980;18.780;2022-08-21T16:42:21;10.07;;;4.57;;
72325;SDS011;60278;47.980;18.780;2022-08-21T16:45:55;11.97;;;5.37;;
72325;SDS011;60278;47.980;18.780;2022-08-21T16:49:27;9.95;;;5.10;;
72325;SDS011;60278;47.980;18.780;2022-08-21T16:52:58;12.85;;;6.03;;
72325;SDS011;60278;47.980;18.780;2022-08-21T16:56:29;11.53;;;5.20;;
72325;SDS011;60278;47.980;18.780;2022-08-21T17:00:02;13.85;;;5.63;;
72325;SDS011;60278;47.980;18.780;2022-08-21T17:03:39;9.32;;;5.18;;
72325;SDS011;60278;47.980;18.780;2022-08-21T17:07:12;11.07;;;6.03;;
72325;SDS011;60278;47.980;18.780;2022-08-21T17:10:44;11.60;;;6.43;;
72325;SDS011;60278;47.980;18.780;2022-08-21T17:14:19;9.98;;;5.78;;
72325;SDS011;60278;47.980;18.780;2022-08-21T17:17:53;11.23;;;6.45;;
72325;SDS011;60278;47.980;18.780;2022-08-21T17:21:26;8.57;;;5.80;;
72325;SDS011;60278;47.980;18.780;2022-08-21T17:24:57;8.88;;;5.47;;
72325;SDS011;60278;47.980;18.780;2022-08-21T17:28:29;11.80;;;5.20;;
72325;SDS011;60278;47.980;18.780;2022-08-21T17:32:04;7.80;;;3.93;;
72325;SDS011;60278;47.980;18.780;2022-08-21T17:35:39;8.52;;;4.05;;
72325;SDS011;60278;47.980;18.780;2022-08-21T17:39:12;5.90;;;3.80;;
72325;SDS011;60278;47.980;18.780;2022-08-21T17:42:43;9.95;;;3.53;;
72325;SDS011;60278;47.980;18.780;2022-08-21T17:46:24;6.57;;;3.30;;
72325;SDS011;60278;47.980;18.780;2022-08-21T17:49:57;7.65;;;3.35;;
72325;SDS011;60278;47.980;18.780;2022-08-21T17:53:28;7.20;;;2.95;;
72325;SDS011;60278;47.980;18.780;2022-08-21T17:56:59;5.43;;;2.93;;
72325;SDS011;60278;47.980;18.780;2022-08-21T18:00:31;7.07;;;3.03;;
72325;SDS011;60278;47.980;18.780;2022-08-21T18:04:04;4.95;;;2.78;;
72325;SDS011;60278;47.980;18.780;2022-08-21T18:07:35;4.90;;;2.60;;
72325;SDS011;60278;47.980;18.780;2022-08-21T18:11:06;4.33;;;2.37;;
72325;SDS011;60278;47.980;18.780;2022-08-21T18:14:38;4.90;;;2.50;;
72325;SDS011;60278;47.980;18.780;2022-08-21T18:18:10;5.25;;;2.50;;
72325;SDS011;60278;47.980;18.780;2022-08-21T18:21:41;5.53;;;2.70;;
72325;SDS011;60278;47.980;18.780;2022-08-21T18:25:13;5.35;;;2.78;;
72325;SDS011;60278;47.980;18.780;2022-08-21T18:28:44;7.63;;;3.00;;
72325;SDS011;60278;47.980;18.780;2022-08-21T18:32:20;4.63;;;2.60;;
72325;SDS011;60278;47.980;18.780;2022-08-21T18:35:53;5.73;;;2.40;;
72325;SDS011;60278;47.980;18.780;2022-08-21T18:39:24;5.32;;;2.50;;
72325;SDS011;60278;47.980;18.780;2022-08-21T18:42:55;4.68;;;2.20;;
72325;SDS011;60278;47.980;18.780;2022-08-21T18:46:26;3.77;;;1.90;;
72325;SDS011;60278;47.980;18.780;2022-08-21T18:49:58;4.30;;;2.20;;
72325;SDS011;60278;47.980;18.780;2022-08-21T18:53:29;6.15;;;2.50;;
72325;SDS011;60278;47.980;18.780;2022-08-21T18:57:00;4.43;;;2.10;;
72325;SDS011;60278;47.980;18.780;2022-08-21T19:00:33;4.03;;;2.10;;
72325;SDS011;60278;47.980;18.780;2022-08-21T19:04:09;6.13;;;2.60;;
72325;SDS011;60278;47.980;18.780;2022-08-21T19:07:41;8.25;;;2.33;;
72325;SDS011;60278;47.980;18.780;2022-08-21T19:11:12;4.33;;;2.20;;
72325;SDS011;60278;47.980;18.780;2022-08-21T19:14:43;9.05;;;2.40;;
72325;SDS011;60278;47.980;18.780;2022-08-21T19:18:14;4.70;;;2.60;;
72325;SDS011;60278;47.980;18.780;2022-08-21T19:21:46;6.25;;;2.50;;
72325;SDS011;60278;47.980;18.780;2022-08-21T19:25:17;7.47;;;2.30;;
72325;SDS011;60278;47.980;18.780;2022-08-21T19:28:49;4.45;;;2.33;;
72325;SDS011;60278;47.980;18.780;2022-08-21T19:32:22;5.15;;;2.28;;
72325;SDS011;60278;47.980;18.780;2022-08-21T19:35:53;7.77;;;2.27;;
72325;SDS011;60278;47.980;18.780;2022-08-21T19:39:25;7.72;;;2.20;;
72325;SDS011;60278;47.980;18.780;2022-08-21T19:42:56;4.10;;;1.80;;
72325;SDS011;60278;47.980;18.780;2022-08-21T19:46:29;5.97;;;2.40;;
72325;SDS011;60278;47.980;18.780;2022-08-21T19:50:03;7.68;;;1.83;;
72325;SDS011;60278;47.980;18.780;2022-08-21T19:53:37;10.73;;;1.92;;
72325;SDS011;60278;47.980;18.780;2022-08-21T19:57:08;6.28;;;2.50;;
72325;SDS011;60278;47.980;18.780;2022-08-21T20:00:40;4.63;;;1.97;;
72325;SDS011;60278;47.980;18.780;2022-08-21T20:04:11;3.90;;;1.90;;
72325;SDS011;60278;47.980;18.780;2022-08-21T20:07:42;5.63;;;2.45;;
72325;SDS011;60278;47.980;18.780;2022-08-21T20:11:14;6.53;;;1.90;;
72325;SDS011;60278;47.980;18.780;2022-08-21T20:14:51;4.55;;;2.08;;
72325;SDS011;60278;47.980;18.780;2022-08-21T20:18:23;4.97;;;2.10;;
72325;SDS011;60278;47.980;18.780;2022-08-21T20:21:54;4.17;;;1.60;;
72325;SDS011;60278;47.980;18.780;2022-08-21T20:25:28;5.28;;;2.00;;
72325;SDS011;60278;47.980;18.780;2022-08-21T20:29:03;4.95;;;1.95;;
72325;SDS011;60278;47.980;18.780;2022-08-21T20:32:35;8.45;;;1.90;;
72325;SDS011;60278;47.980;18.780;2022-08-21T20:36:06;4.80;;;1.90;;
72325;SDS011;60278;47.980;18.780;2022-08-21T20:39:37;4.32;;;2.00;;
72325;SDS011;60278;47.980;18.780;2022-08-21T20:43:08;4.10;;;1.75;;
72325;SDS011;60278;47.980;18.780;2022-08-21T20:46:41;4.53;;;1.80;;
72325;SDS011;60278;47.980;18.780;2022-08-21T20:50:15;3.40;;;1.85;;
72325;SDS011;60278;47.980;18.780;2022-08-21T20:53:53;5.72;;;1.80;;
72325;SDS011;60278;47.980;18.780;2022-08-21T20:57:42;2.70;;;1.33;;
72325;SDS011;60278;47.980;18.780;2022-08-21T21:01:30;2.87;;;1.53;;
72325;SDS011;60278;47.980;18.780;2022-08-21T21:12:19;3.57;;;1.60;;
72325;SDS011;60278;47.980;18.780;2022-08-21T21:16:14;4.43;;;1.70;;
72325;SDS011;60278;47.980;18.780;2022-08-21T21:19:56;3.58;;;1.63;;
72325;SDS011;60278;47.980;18.780;2022-08-21T21:27:19;4.28;;;1.40;;
72325;SDS011;60278;47.980;18.780;2022-08-21T21:30:52;2.75;;;1.27;;
72325;SDS011;60278;47.980;18.780;2022-08-21T21:34:23;4.28;;;1.38;;
72325;SDS011;60278;47.980;18.780;2022-08-21T21:45:23;5.72;;;1.90;;
72325;SDS011;60278;47.980;18.780;2022-08-21T22:00:06;4.05;;;1.52;;
72325;SDS011;60278;47.980;18.780;2022-08-21T22:14:55;7.27;;;1.70;;
72325;SDS011;60278;47.980;18.780;2022-08-21T22:18:28;5.78;;;1.60;;
72325;SDS011;60278;47.980;18.780;2022-08-21T22:22:16;9.60;;;1.95;;
72325;SDS011;60278;47.980;18.780;2022-08-21T22:25:50;4.78;;;1.80;;
72325;SDS011;60278;47.980;18.780;2022-08-21T22:29:25;5.67;;;1.80;;
72325;SDS011;60278;47.980;18.780;2022-08-21T22:33:30;3.53;;;1.77;;
72325;SDS011;60278;47.980;18.780;2022-08-21T22:37:03;5.10;;;1.65;;
72325;SDS011;60278;47.980;18.780;2022-08-21T22:40:38;6.97;;;1.97;;
72325;SDS011;60278;47.980;18.780;2022-08-21T22:44:22;3.22;;;1.45;;
72325;SDS011;60278;47.980;18.780;2022-08-21T22:48:01;4.63;;;1.55;;
72325;SDS011;60278;47.980;18.780;2022-08-21T22:51:39;6.77;;;1.57;;
72325;SDS011;60278;47.980;18.780;2022-08-21T22:58:55;6.40;;;1.85;;
72325;SDS011;60278;47.980;18.780;2022-08-21T23:06:01;4.50;;;1.90;;
72325;SDS011;60278;47.980;18.780;2022-08-21T23:09:37;12.55;;;2.08;;
72325;SDS011;60278;47.980;18.780;2022-08-21T23:13:18;5.68;;;1.80;;
72325;SDS011;60278;47.980;18.780;2022-08-21T23:16:52;6.47;;;1.97;;